Time;durP1;ratioP1;P1;durP2;ratioP2;P2;SDS_P1;SDS_P2;PMS_P1;PMS_P2;Temp;Humidity;BMP_temperature;BMP_pressure;BME280_temperature;BME280_humidity;BME280_pressure;Samples;Min_cycle;Max_cycle;Signal;HPM_P1;HPM_P2
2023/08/28 00:00:51;;;;;;;1.73;1.47;;;20.60;91.20;19.80;96109.00;;;;5021365;28;20204;-86
2023/08/28 00:03:18;;;;;;;1.30;1.20;;;20.60;91.30;19.80;96100.00;;;;5014571;28;20651;-86
2023/08/28 00:05:46;;;;;;;1.40;1.30;;;20.60;91.20;19.80;96099.00;;;;5019842;28;20229;-86
2023/08/28 00:08:14;;;;;;;1.10;1.03;;;20.60;91.20;19.80;96092.00;;;;5024032;28;20697;-86
2023/08/28 00:10:41;;;;;;;1.10;1.10;;;20.60;91.30;19.90;96097.00;;;;5022331;28;20194;-86
2023/08/28 00:13:10;;;;;;;1.57;1.07;;;20.60;91.30;19.90;96091.00;;;;5019716;28;20205;-85
2023/08/28 00:15:39;;;;;;;2.17;1.10;;;20.60;91.30;19.90;96088.00;;;;5017777;28;20229;-86
2023/08/28 00:18:08;;;;;;;1.47;1.10;;;20.60;91.20;19.90;96080.00;;;;5018385;28;20244;-86
2023/08/28 00:20:36;;;;;;;1.63;0.90;;;20.60;91.20;19.80;96073.00;;;;5024312;28;20197;-86
2023/08/28 00:23:04;;;;;;;1.20;1.00;;;20.60;91.30;19.80;96070.00;;;;5025153;28;20670;-86
2023/08/28 00:25:31;;;;;;;1.00;1.00;;;20.60;91.30;19.80;96068.00;;;;5031678;28;20225;-86
2023/08/28 00:28:01;;;;;;;5.03;1.30;;;20.60;91.30;19.80;96061.00;;;;5023773;28;20195;-87
2023/08/28 00:30:30;;;;;;;1.27;1.10;;;20.60;91.30;19.80;96053.00;;;;5016193;28;20213;-86
2023/08/28 00:33:01;;;;;;;1.47;1.17;;;20.60;91.30;19.80;96049.00;;;;5031319;28;20200;-86
2023/08/28 00:35:28;;;;;;;1.17;1.17;;;20.60;91.30;19.80;96042.00;;;;5021726;28;20242;-87
2023/08/28 00:37:56;;;;;;;1.60;1.47;;;20.60;91.40;19.80;96042.00;;;;5021134;28;20687;-84
2023/08/28 00:40:25;;;;;;;2.17;1.30;;;20.60;91.40;19.80;96035.00;;;;5020064;28;20565;-87
2023/08/28 00:42:53;;;;;;;1.20;1.10;;;20.60;91.40;19.80;96032.00;;;;5005399;28;20197;-85
2023/08/28 00:45:20;;;;;;;1.50;1.27;;;20.60;91.50;19.80;96035.00;;;;5021095;28;20236;-86
2023/08/28 00:47:48;;;;;;;1.50;1.40;;;20.60;91.50;19.80;96023.00;;;;5030851;28;20694;-86
2023/08/28 00:50:17;;;;;;;1.70;1.60;;;20.50;91.50;19.80;96022.00;;;;5024778;28;20206;-86
2023/08/28 00:52:47;;;;;;;1.30;1.20;;;20.50;91.50;19.80;96036.00;;;;5020076;28;20194;-86
2023/08/28 00:55:15;;;;;;;1.40;1.30;;;20.50;91.60;19.80;96053.00;;;;5021117;28;20889;-86
2023/08/28 00:57:43;;;;;;;1.53;1.43;;;20.50;91.60;19.80;96052.00;;;;5021295;28;20197;-85
2023/08/28 01:00:12;;;;;;;1.80;1.70;;;20.50;91.80;19.80;96051.00;;;;5012252;28;20690;-86
2023/08/28 01:02:41;;;;;;;1.30;1.20;;;20.50;91.50;19.80;96047.00;;;;5016522;28;20224;-86
2023/08/28 01:05:09;;;;;;;1.73;1.60;;;20.50;91.50;19.80;96056.00;;;;5023994;28;20217;-88
2023/08/28 01:07:53;;;;;;;1.77;1.40;;;20.50;91.50;19.70;96055.00;;;;5028895;28;20204;-85
2023/08/28 01:10:29;;;;;;;1.60;1.40;;;20.50;91.40;19.70;96060.00;;;;5023631;28;20293;-89
2023/08/28 01:13:05;;;;;;;1.90;1.60;;;20.50;91.40;19.70;96063.00;;;;5024354;28;20203;-87
2023/08/28 01:15:36;;;;;;;1.50;1.40;;;20.50;91.40;19.70;96066.00;;;;5022018;28;20601;-85
2023/08/28 01:18:06;;;;;;;2.43;1.80;;;20.50;91.50;19.70;96062.00;;;;5017509;28;20666;-87
2023/08/28 01:20:36;;;;;;;1.67;1.57;;;20.40;91.50;19.70;96059.00;;;;5020618;28;20209;-88
2023/08/28 01:23:24;;;;;;;1.40;1.30;;;20.40;91.60;19.70;96050.00;;;;5017550;28;20284;-86
2023/08/28 01:25:54;;;;;;;1.73;1.63;;;20.40;91.60;19.70;96047.00;;;;5022696;28;20290;-86
2023/08/28 01:28:22;;;;;;;1.70;1.60;;;20.40;91.70;19.70;96056.00;;;;5014178;28;20201;-86
2023/08/28 01:30:51;;;;;;;1.53;1.43;;;20.40;91.70;19.70;96058.00;;;;5021831;28;20204;-86
2023/08/28 01:33:19;;;;;;;1.67;1.57;;;20.40;91.80;19.70;96055.00;;;;5020666;28;20293;-86
2023/08/28 01:35:56;;;;;;;1.93;1.30;;;20.40;91.70;19.70;96056.00;;;;5022032;28;20217;-86
2023/08/28 01:38:32;;;;;;;1.90;1.80;;;20.40;91.70;19.70;96052.00;;;;5002881;28;20773;-86
2023/08/28 01:41:07;;;;;;;2.13;1.80;;;20.40;91.70;19.70;96056.00;;;;5028106;28;20202;-86
2023/08/28 01:43:38;;;;;;;1.57;1.47;;;20.50;91.70;19.70;96045.00;;;;5034179;28;20204;-87
2023/08/28 01:46:08;;;;;;;1.77;1.67;;;20.40;91.70;19.70;96051.00;;;;5027619;28;20710;-87
2023/08/28 01:48:36;;;;;;;2.40;1.70;;;20.40;91.70;19.70;96050.00;;;;5018514;28;20225;-87
2023/08/28 01:51:03;;;;;;;1.83;1.73;;;20.40;91.70;19.70;96062.00;;;;5027691;28;20213;-86
2023/08/28 01:53:31;;;;;;;1.70;1.60;;;20.40;91.60;19.70;96059.00;;;;5019806;28;20253;-87
2023/08/28 01:56:27;;;;;;;1.53;1.43;;;20.40;91.60;19.70;96056.00;;;;5027348;28;20228;-86
2023/08/28 01:58:56;;;;;;;2.20;1.83;;;20.40;91.60;19.70;96045.00;;;;5029594;28;20201;-86
2023/08/28 02:01:25;;;;;;;1.70;1.60;;;20.40;91.60;19.70;96045.00;;;;5019616;28;20714;-86
2023/08/28 02:03:53;;;;;;;1.70;1.60;;;20.40;91.60;19.70;96043.00;;;;5026499;28;20663;-86
2023/08/28 02:06:21;;;;;;;1.73;1.63;;;20.40;91.90;19.70;96036.00;;;;5033819;28;20233;-87
2023/08/28 02:08:49;;;;;;;2.57;1.97;;;20.40;91.60;19.70;96035.00;;;;5048514;28;20726;-87
2023/08/28 02:11:17;;;;;;;1.70;1.60;;;20.40;91.60;19.70;96037.00;;;;5044431;28;20209;-86
2023/08/28 02:13:45;;;;;;;1.70;1.60;;;20.40;91.60;19.70;96031.00;;;;5056982;28;20212;-87
2023/08/28 02:16:13;;;;;;;2.73;1.60;;;20.40;91.60;19.70;96035.00;;;;5051917;28;20259;-87
2023/08/28 02:18:40;;;;;;;1.53;1.43;;;20.40;91.90;19.60;96034.00;;;;5053982;28;20399;-87
2023/08/28 02:21:08;;;;;;;1.80;1.40;;;20.40;91.60;19.60;96029.00;;;;5026586;28;20230;-87
2023/08/28 02:23:35;;;;;;;1.90;1.50;;;20.40;91.60;19.60;96022.00;;;;5015182;28;20228;-87
2023/08/28 02:26:02;;;;;;;1.57;1.47;;;20.40;91.60;19.60;96011.00;;;;5021888;28;20225;-88
2023/08/28 02:28:29;;;;;;;1.70;1.60;;;20.40;91.50;19.60;96003.00;;;;5022257;28;20198;-88
2023/08/28 02:31:00;;;;;;;1.43;1.30;;;20.40;91.40;19.60;95987.00;;;;5022538;28;20207;-88
2023/08/28 02:33:28;;;;;;;2.03;1.53;;;20.30;91.30;19.50;95983.00;;;;5020950;28;20204;-88
2023/08/28 02:35:55;;;;;;;2.73;1.67;;;20.30;91.60;19.50;95978.00;;;;5017365;28;20225;-88
2023/08/28 02:38:23;;;;;;;1.60;1.50;;;20.30;91.20;19.50;95981.00;;;;5024856;28;20308;-88
2023/08/28 02:40:50;;;;;;;1.50;1.40;;;20.30;91.20;19.50;95982.00;;;;5028081;28;20292;-88
2023/08/28 02:43:17;;;;;;;1.50;1.40;;;20.30;91.30;19.50;95974.00;;;;5018229;28;20194;-89
2023/08/28 02:45:45;;;;;;;1.47;1.37;;;20.20;91.30;19.40;95967.00;;;;5027055;28;20228;-89
2023/08/28 02:48:13;;;;;;;1.60;1.50;;;20.20;91.40;19.40;95966.00;;;;5019503;28;20206;-88
2023/08/28 02:50:40;;;;;;;1.43;1.33;;;20.20;91.40;19.40;95959.00;;;;5023247;28;20682;-89
2023/08/28 02:53:08;;;;;;;1.50;1.40;;;20.20;91.40;19.40;95954.00;;;;5022536;28;20619;-89
2023/08/28 02:55:39;;;;;;;2.50;1.60;;;20.20;91.50;19.40;95954.00;;;;5021991;28;20215;-89
2023/08/28 02:58:07;;;;;;;1.87;1.63;;;20.20;91.50;19.40;95958.00;;;;5022036;28;20200;-89
2023/08/28 03:00:37;;;;;;;3.63;2.10;;;20.20;91.50;19.30;95958.00;;;;5017418;28;20693;-88
2023/08/28 03:03:05;;;;;;;1.83;1.70;;;20.20;91.60;19.30;95951.00;;;;5026607;28;20203;-89
2023/08/28 03:05:34;;;;;;;1.80;1.50;;;20.10;91.60;19.30;95952.00;;;;5024681;28;20588;-90
2023/08/28 03:08:01;;;;;;;2.73;1.90;;;20.10;91.50;19.30;95944.00;;;;5025618;28;20288;-89
2023/08/28 03:10:31;;;;;;;3.20;1.90;;;20.10;91.50;19.30;95955.00;;;;5011890;28;20212;-89
2023/08/28 03:12:58;;;;;;;2.00;1.90;;;20.10;91.50;19.30;95956.00;;;;5014187;28;20571;-90
2023/08/28 03:15:26;;;;;;;1.77;1.67;;;20.10;91.50;19.30;95954.00;;;;5022775;28;20793;-90
2023/08/28 03:17:53;;;;;;;1.90;1.80;;;20.10;91.50;19.30;95954.00;;;;5022594;28;20210;-90
2023/08/28 03:20:20;;;;;;;1.80;1.70;;;20.10;91.50;19.30;95947.00;;;;5020604;28;20696;-89
2023/08/28 03:22:49;;;;;;;2.43;1.77;;;20.10;91.50;19.30;95945.00;;;;5020885;28;20287;-89
2023/08/28 03:25:17;;;;;;;1.90;1.80;;;20.00;91.80;19.30;95952.00;;;;5020028;28;20714;-89
2023/08/28 03:27:44;;;;;;;2.67;2.10;;;20.00;91.60;19.20;95960.00;;;;5024489;28;20593;-89
2023/08/28 03:30:12;;;;;;;1.80;1.70;;;20.00;91.60;19.20;95954.00;;;;5025149;28;20204;-89
2023/08/28 03:32:39;;;;;;;2.80;2.00;;;20.00;91.60;19.20;95960.00;;;;5031997;28;20204;-90
2023/08/28 03:35:08;;;;;;;1.97;1.87;;;20.00;91.60;19.30;95959.00;;;;5023554;28;20300;-89
2023/08/28 03:37:35;;;;;;;2.20;2.03;;;20.00;91.60;19.30;95959.00;;;;5022166;28;20202;-90
2023/08/28 03:40:05;;;;;;;2.77;2.20;;;20.00;91.90;19.20;95960.00;;;;5028330;28;20208;-90
2023/08/28 03:42:32;;;;;;;3.40;3.03;;;20.00;91.50;19.20;95966.00;;;;5014772;28;20232;-90
2023/08/28 03:44:59;;;;;;;2.27;2.10;;;20.00;91.50;19.20;95967.00;;;;5022933;28;20213;-89
2023/08/28 03:47:26;;;;;;;3.70;2.10;;;20.00;91.40;19.20;95972.00;;;;5006273;28;20725;-90
2023/08/28 03:49:53;;;;;;;1.77;1.67;;;20.00;91.70;19.10;95966.00;;;;5025819;28;20205;-90
2023/08/28 03:52:21;;;;;;;1.80;1.70;;;19.90;91.30;19.10;95971.00;;;;5025675;28;20313;-90
2023/08/28 03:54:48;;;;;;;1.90;1.80;;;19.90;91.40;19.10;95980.00;;;;5025563;28;20211;-90
2023/08/28 03:57:18;;;;;;;1.47;1.37;;;19.90;91.40;19.10;95972.00;;;;5025864;28;20217;-90
2023/08/28 03:59:47;;;;;;;1.10;1.03;;;19.90;91.40;19.00;95972.00;;;;5017173;28;20661;-90
2023/08/28 04:02:14;;;;;;;1.60;1.50;;;19.90;91.30;19.00;95977.00;;;;5000533;28;20209;-90
2023/08/28 04:04:42;;;;;;;1.33;1.23;;;19.80;91.10;19.00;95971.00;;;;5024114;28;20208;-90
2023/08/28 04:07:12;;;;;;;2.30;2.10;;;19.80;91.00;18.90;95975.00;;;;5019931;28;20229;-89
2023/08/28 04:09:39;;;;;;;4.37;1.80;;;19.80;91.00;18.90;95965.00;;;;5033847;28;20582;-91
2023/08/28 04:12:09;;;;;;;1.60;1.50;;;19.70;91.00;18.90;95970.00;;;;5024973;28;20205;-90
2023/08/28 04:14:38;;;;;;;2.00;1.50;;;19.70;91.10;18.80;95948.00;;;;5032147;28;20205;-91
2023/08/28 04:17:07;;;;;;;1.73;1.40;;;19.70;91.20;18.80;95941.00;;;;5008116;28;20210;-88
2023/08/28 04:19:35;;;;;;;2.77;1.47;;;19.70;91.20;18.80;95932.00;;;;5019393;28;20298;-89
2023/08/28 04:22:03;;;;;;;5.10;1.30;;;19.60;91.30;18.70;95927.00;;;;5017814;28;20207;-89
2023/08/28 04:24:30;;;;;;;1.43;1.33;;;19.60;91.40;18.70;95931.00;;;;5015510;28;20194;-89
2023/08/28 04:26:56;;;;;;;1.60;1.03;;;19.60;91.30;18.70;95925.00;;;;5023319;28;20221;-90
2023/08/28 04:29:23;;;;;;;1.47;1.13;;;19.60;91.20;18.60;95926.00;;;;5022972;28;20198;-90
2023/08/28 04:31:52;;;;;;;1.67;1.10;;;19.50;91.30;18.60;95926.00;;;;5024069;28;20204;-88
2023/08/28 04:34:19;;;;;;;2.67;1.20;;;19.50;91.30;18.60;95915.00;;;;5026526;28;20202;-87
2023/08/28 04:36:47;;;;;;;1.27;1.17;;;19.50;91.40;18.60;95901.00;;;;5030973;28;20214;-85
2023/08/28 04:39:14;;;;;;;3.07;1.30;;;19.50;91.40;18.50;95892.00;;;;5028151;28;20198;-85
2023/08/28 04:41:41;;;;;;;1.53;1.43;;;19.50;91.40;18.50;95892.00;;;;5023062;28;20201;-85
2023/08/28 04:44:09;;;;;;;4.90;1.50;;;19.40;91.50;18.50;95889.00;;;;5022995;28;20206;-85
2023/08/28 04:46:36;;;;;;;2.40;1.20;;;19.40;91.50;18.50;95889.00;;;;5028993;28;20233;-85
2023/08/28 04:49:04;;;;;;;2.87;1.20;;;19.40;91.60;18.50;95882.00;;;;5011892;28;20583;-85
2023/08/28 04:51:32;;;;;;;1.70;1.60;;;19.40;91.70;18.50;95892.00;;;;5020692;28;20289;-85
2023/08/28 04:53:59;;;;;;;1.53;1.43;;;19.40;91.70;18.50;95892.00;;;;5020757;28;20663;-85
2023/08/28 04:56:26;;;;;;;1.50;1.40;;;19.40;91.80;18.50;95903.00;;;;5021909;28;20221;-85
2023/08/28 04:58:53;;;;;;;1.57;1.37;;;19.40;91.80;18.50;95908.00;;;;5032577;28;20202;-84
2023/08/28 05:01:20;;;;;;;2.17;1.70;;;19.40;91.90;18.50;95902.00;;;;5022592;28;20765;-84
2023/08/28 05:03:48;;;;;;;1.90;1.80;;;19.40;91.80;18.50;95898.00;;;;5016993;28;20205;-84
2023/08/28 05:06:16;;;;;;;1.83;1.70;;;19.40;91.80;18.50;95891.00;;;;5021863;28;20304;-84
2023/08/28 05:08:44;;;;;;;1.60;1.50;;;19.40;91.80;18.50;95891.00;;;;5012808;28;20195;-84
2023/08/28 05:11:12;;;;;;;1.97;1.83;;;19.40;91.90;18.50;95897.00;;;;5018819;28;20208;-84
2023/08/28 05:13:39;;;;;;;1.70;1.60;;;19.40;91.90;18.60;95894.00;;;;5018370;28;20198;-84
2023/08/28 05:16:06;;;;;;;2.67;2.23;;;19.50;92.00;18.60;95890.00;;;;5010437;28;20218;-84
2023/08/28 05:18:33;;;;;;;1.70;1.60;;;19.50;92.00;18.60;95897.00;;;;5020523;28;20284;-84
2023/08/28 05:21:00;;;;;;;1.50;1.40;;;19.50;91.90;18.60;95884.00;;;;5020499;28;20717;-84
2023/08/28 05:23:29;;;;;;;1.73;1.63;;;19.50;91.90;18.60;95893.00;;;;5020323;28;20678;-84
2023/08/28 05:25:57;;;;;;;2.00;1.70;;;19.50;92.30;18.60;95896.00;;;;5012075;28;20218;-83
2023/08/28 05:28:24;;;;;;;1.93;1.70;;;19.50;91.90;18.60;95894.00;;;;5028199;28;20224;-84
2023/08/28 05:30:53;;;;;;;2.30;2.07;;;19.50;91.90;18.70;95879.00;;;;5019291;28;20206;-84
2023/08/28 05:33:21;;;;;;;2.50;1.73;;;19.50;91.90;18.70;95866.00;;;;5020294;28;20204;-84
2023/08/28 05:35:48;;;;;;;2.53;1.90;;;19.50;91.80;18.70;95855.00;;;;5016372;28;20229;-85
2023/08/28 05:38:15;;;;;;;1.70;1.53;;;19.50;91.80;18.70;95839.00;;;;5013201;28;20209;-85
2023/08/28 05:40:44;;;;;;;2.23;2.13;;;19.50;91.80;18.70;95834.00;;;;5018890;28;20569;-84
2023/08/28 05:43:11;;;;;;;1.93;1.83;;;19.50;91.90;18.70;95828.00;;;;5023892;28;20197;-84
2023/08/28 05:45:39;;;;;;;2.00;1.90;;;19.50;91.90;18.70;95825.00;;;;5014556;28;20209;-84
2023/08/28 05:48:07;;;;;;;2.20;2.00;;;19.50;91.80;18.70;95828.00;;;;5022323;28;20603;-84
2023/08/28 05:50:36;;;;;;;2.30;2.20;;;19.60;91.90;18.70;95822.00;;;;5019882;28;20206;-84
2023/08/28 05:53:04;;;;;;;2.40;2.20;;;19.50;91.90;18.70;95824.00;;;;5019038;28;20716;-83
2023/08/28 05:55:31;;;;;;;3.30;2.20;;;19.60;92.00;18.70;95803.00;;;;5022106;28;20585;-84
2023/08/28 05:58:00;;;;;;;1.97;1.87;;;19.60;92.00;18.80;95792.00;;;;5017822;28;20209;-84
2023/08/28 06:00:30;;;;;;;2.93;2.50;;;19.60;92.00;18.80;95784.00;;;;5021375;28;20197;-85
2023/08/28 06:02:57;;;;;;;7.63;2.67;;;19.60;91.90;18.80;95783.00;;;;5018374;28;20209;-85
2023/08/28 06:05:26;;;;;;;2.67;2.37;;;19.60;91.90;18.80;95770.00;;;;5019276;28;20217;-85
2023/08/28 06:07:53;;;;;;;3.90;2.63;;;19.60;91.90;18.80;95758.00;;;;5028556;28;20853;-85
2023/08/28 06:10:21;;;;;;;2.50;2.30;;;19.60;92.00;18.80;95739.00;;;;5029945;28;20209;-85
2023/08/28 06:12:50;;;;;;;2.13;2.03;;;19.60;91.90;18.80;95711.00;;;;5018983;28;20682;-85
2023/08/28 06:15:19;;;;;;;2.50;2.30;;;19.60;91.80;18.70;95704.00;;;;5019166;28;20919;-85
2023/08/28 06:17:47;;;;;;;2.53;2.43;;;19.60;91.70;18.70;95696.00;;;;5013215;28;20226;-85
2023/08/28 06:20:14;;;;;;;2.40;2.20;;;19.60;91.60;18.70;95706.00;;;;5022599;28;20277;-86
2023/08/28 06:22:43;;;;;;;3.00;2.20;;;19.60;91.60;18.70;95728.00;;;;5021118;28;20569;-86
2023/08/28 06:25:11;;;;;;;3.13;2.20;;;19.50;91.60;18.60;95725.00;;;;5024545;28;20230;-86
2023/08/28 06:27:39;;;;;;;5.83;2.40;;;19.50;91.80;18.60;95738.00;;;;5033728;28;20646;-86
2023/08/28 06:30:08;;;;;;;2.27;2.17;;;19.50;91.90;18.60;95747.00;;;;5028877;28;20581;-86
2023/08/28 06:32:37;;;;;;;2.40;2.20;;;19.50;91.90;18.60;95751.00;;;;5015205;28;20293;-87
2023/08/28 06:35:05;;;;;;;3.17;2.00;;;19.50;92.00;18.60;95765.00;;;;5015378;28;20223;-87
2023/08/28 06:37:33;;;;;;;2.97;2.07;;;19.50;92.10;18.70;95774.00;;;;5019344;28;20201;-88
2023/08/28 06:40:03;;;;;;;2.93;1.90;;;19.50;92.10;18.70;95775.00;;;;5022491;28;20202;-86
2023/08/28 06:42:31;;;;;;;3.27;2.00;;;19.50;92.10;18.70;95778.00;;;;5030881;28;20675;-86
2023/08/28 06:44:58;;;;;;;4.37;2.47;;;19.50;92.20;18.70;95780.00;;;;5028065;28;20208;-87
2023/08/28 06:47:25;;;;;;;2.43;2.33;;;19.50;92.20;18.70;95792.00;;;;5041599;28;20560;-87
2023/08/28 06:49:54;;;;;;;2.33;2.23;;;19.50;92.20;18.70;95792.00;;;;5028162;28;20217;-87
2023/08/28 06:52:21;;;;;;;2.50;2.30;;;19.50;92.20;18.70;95784.00;;;;5025983;28;20198;-87
2023/08/28 06:54:49;;;;;;;2.00;1.90;;;19.50;92.10;18.70;95779.00;;;;5023915;28;20233;-87
2023/08/28 06:57:17;;;;;;;3.20;2.00;;;19.50;92.10;18.70;95784.00;;;;5005201;28;20212;-88
2023/08/28 06:59:44;;;;;;;1.90;1.80;;;19.50;92.10;18.70;95794.00;;;;5015050;28;20193;-88
2023/08/28 07:02:30;;;;;;;1.80;1.70;;;19.60;92.00;18.70;95787.00;;;;5027824;28;20294;-88
2023/08/28 07:04:59;;;;;;;2.97;1.80;;;19.60;92.00;18.70;95790.00;;;;5014820;28;20218;-88
2023/08/28 07:07:26;;;;;;;1.73;1.63;;;19.60;92.00;18.70;95781.00;;;;5029409;28;20281;-88
2023/08/28 07:09:53;;;;;;;2.57;1.63;;;19.60;92.00;18.70;95775.00;;;;5031895;28;20208;-87
2023/08/28 07:12:21;;;;;;;2.40;1.70;;;19.60;92.00;18.70;95760.00;;;;5031567;28;20284;-85
2023/08/28 07:15:49;;;;;;;6.27;1.77;;;19.60;91.90;18.70;95763.00;;;;5032440;28;20202;-86
2023/08/28 07:18:17;;;;;;;4.07;1.63;;;19.50;91.80;18.70;95764.00;;;;5030087;28;20197;-86
2023/08/28 07:20:46;;;;;;;2.67;1.70;;;19.50;91.80;18.60;95755.00;;;;5024464;28;20193;-85
2023/08/28 07:23:14;;;;;;;5.57;1.70;;;19.50;91.80;18.60;95762.00;;;;5032953;28;20203;-86
2023/08/28 07:25:41;;;;;;;4.33;1.87;;;19.50;91.80;18.60;95749.00;;;;5023762;28;20273;-86
2023/08/28 07:28:10;;;;;;;5.53;1.57;;;19.50;91.80;18.60;95754.00;;;;5026877;28;20224;-86
2023/08/28 07:30:37;;;;;;;7.60;1.50;;;19.50;91.80;18.60;95749.00;;;;5033559;28;20274;-87
2023/08/28 07:33:05;;;;;;;10.03;2.03;;;19.50;91.80;18.60;95758.00;;;;5035815;28;20193;-87
2023/08/28 07:35:36;;;;;;;1.77;1.33;;;19.40;91.70;18.50;95761.00;;;;5023543;28;20230;-87
2023/08/28 07:38:08;;;;;;;3.40;1.30;;;19.40;91.70;18.50;95770.00;;;;5024440;28;20680;-86
2023/08/28 07:40:37;;;;;;;1.40;0.90;;;19.40;91.60;18.50;95768.00;;;;5037706;28;20754;-87
2023/08/28 07:43:06;;;;;;;5.97;1.53;;;19.30;91.60;18.40;95774.00;;;;5030144;28;20290;-86
2023/08/28 07:45:33;;;;;;;1.30;1.20;;;19.30;91.50;18.40;95769.00;;;;5033732;28;20260;-87
2023/08/28 07:48:00;;;;;;;2.93;1.10;;;19.30;91.50;18.40;95759.00;;;;5035146;28;21612;-87
2023/08/28 07:50:30;;;;;;;6.30;1.30;;;19.30;91.50;18.30;95755.00;;;;5031288;28;20213;-88
2023/08/28 07:52:58;;;;;;;1.87;1.00;;;19.20;91.50;18.30;95726.00;;;;5056521;28;20207;-88
2023/08/28 07:55:27;;;;;;;1.17;0.97;;;19.20;91.50;18.20;95703.00;;;;5051175;28;20228;-88
2023/08/28 07:57:55;;;;;;;2.80;0.90;;;19.20;91.50;18.20;95673.00;;;;5038806;28;20205;-88
2023/08/28 08:00:23;;;;;;;2.90;0.93;;;19.10;91.50;18.20;95685.00;;;;5054146;28;20201;-87
2023/08/28 08:02:52;;;;;;;1.30;1.20;;;19.10;91.60;18.20;95687.00;;;;5054542;28;20181;-88
2023/08/28 08:05:19;;;;;;;4.63;1.07;;;19.10;91.60;18.10;95706.00;;;;5049847;28;20210;-88
2023/08/28 08:07:50;;;;;;;0.97;0.80;;;19.00;91.60;18.10;95699.00;;;;5034236;28;20217;-87
2023/08/28 08:10:18;;;;;;;1.63;1.00;;;19.00;91.70;18.10;95717.00;;;;5012219;28;20563;-88
2023/08/28 08:12:47;;;;;;;3.40;1.53;;;19.00;91.80;18.10;95737.00;;;;5010798;28;20200;-88
2023/08/28 08:15:14;;;;;;;2.67;1.13;;;19.00;91.90;18.10;95755.00;;;;5028328;28;20217;-88
2023/08/28 08:17:42;;;;;;;1.10;1.00;;;19.00;91.90;18.10;95777.00;;;;5025728;28;20198;-88
2023/08/28 08:20:12;;;;;;;1.03;1.00;;;19.00;91.90;18.10;95784.00;;;;5027543;28;20202;-87
2023/08/28 08:22:40;;;;;;;2.60;1.10;;;19.00;92.00;18.10;95789.00;;;;5029160;28;20227;-88
2023/08/28 08:25:10;;;;;;;1.50;1.03;;;19.00;92.00;18.10;95791.00;;;;5031655;28;20220;-88
2023/08/28 08:27:39;;;;;;;0.90;0.90;;;19.00;92.10;18.10;95797.00;;;;5016766;28;20228;-89
2023/08/28 08:30:13;;;;;;;1.00;1.00;;;19.00;92.10;18.10;95802.00;;;;5026957;28;20290;-89
2023/08/28 08:32:43;;;;;;;1.40;1.23;;;19.00;92.10;18.10;95811.00;;;;5025068;28;20194;-89
2023/08/28 08:35:12;;;;;;;2.20;1.10;;;19.00;92.20;18.20;95820.00;;;;5028481;28;20224;-87
2023/08/28 08:37:40;;;;;;;1.40;1.30;;;19.00;92.20;18.20;95829.00;;;;5029494;28;20202;-88
2023/08/28 08:40:14;;;;;;;1.40;1.23;;;19.00;92.10;18.20;95832.00;;;;5035048;28;20202;-88
2023/08/28 08:42:42;;;;;;;2.87;1.10;;;19.00;92.10;18.20;95837.00;;;;5032257;28;20197;-88
2023/08/28 08:45:11;;;;;;;1.03;0.97;;;19.00;92.00;18.20;95852.00;;;;5031620;28;20235;-88
2023/08/28 08:47:41;;;;;;;1.40;1.10;;;19.00;92.10;18.20;95846.00;;;;5023204;28;20244;-88
2023/08/28 08:50:09;;;;;;;1.30;1.17;;;19.10;92.10;18.20;95851.00;;;;5027954;28;20205;-87
2023/08/28 08:53:14;;;;;;;1.03;0.90;;;19.10;92.10;18.20;95846.00;;;;5041005;28;20279;-87
2023/08/28 08:55:47;;;;;;;1.27;1.13;;;19.10;92.10;18.20;95858.00;;;;5025528;28;20308;-86
2023/08/28 08:58:17;;;;;;;1.10;1.00;;;19.10;92.10;18.20;95857.00;;;;5028056;28;20201;-86
2023/08/28 09:01:04;;;;;;;1.37;1.10;;;19.10;92.10;18.20;95859.00;;;;5025449;28;20571;-87
2023/08/28 09:03:57;;;;;;;2.00;1.10;;;19.10;92.10;18.30;95858.00;;;;5037013;28;20670;-87
2023/08/28 09:06:34;;;;;;;3.03;1.20;;;19.10;92.10;18.30;95849.00;;;;5031266;28;20750;-85
2023/08/28 09:09:05;;;;;;;1.77;0.83;;;19.20;92.20;18.30;95857.00;;;;5038724;28;20217;-86
2023/08/28 09:11:39;;;;;;;1.77;1.03;;;19.20;92.20;18.30;95859.00;;;;5038064;28;20288;-87
2023/08/28 09:14:06;;;;;;;1.30;0.80;;;19.20;92.20;18.30;95866.00;;;;5025883;28;20670;-87
2023/08/28 09:17:01;;;;;;;0.70;0.70;;;19.20;92.10;18.30;95865.00;;;;5039011;28;20244;-86
2023/08/28 09:19:35;;;;;;;1.03;0.93;;;19.20;92.10;18.30;95858.00;;;;5044435;28;20264;-86
2023/08/28 09:22:04;;;;;;;1.20;1.10;;;19.20;92.10;18.40;95838.00;;;;5045369;28;20221;-86
2023/08/28 09:24:33;;;;;;;1.13;0.90;;;19.20;92.10;18.40;95821.00;;;;5036490;28;20203;-87
2023/08/28 09:27:03;;;;;;;0.67;0.67;;;19.30;92.10;18.40;95796.00;;;;5036883;28;20296;-85
2023/08/28 09:29:31;;;;;;;1.07;1.00;;;19.30;92.50;18.40;95775.00;;;;5024760;28;20233;-86
2023/08/28 09:32:04;;;;;;;0.90;0.90;;;19.30;92.10;18.40;95763.00;;;;5038428;28;20569;-86
2023/08/28 09:34:39;;;;;;;0.80;0.70;;;19.30;92.00;18.30;95734.00;;;;5033467;28;20201;-86
2023/08/28 09:37:11;;;;;;;1.07;1.07;;;19.30;92.00;18.30;95693.00;;;;5029231;28;20564;-85
2023/08/28 09:39:56;;;;;;;0.80;0.80;;;19.30;91.90;18.30;95667.00;;;;5023392;28;20213;-85
2023/08/28 09:42:24;;;;;;;1.00;1.00;;;19.20;91.90;18.30;95652.00;;;;5015318;28;20252;-85
2023/08/28 09:44:52;;;;;;;0.90;0.90;;;19.20;91.80;18.30;95635.00;;;;5029167;28;20205;-85
2023/08/28 09:47:23;;;;;;;0.97;0.97;;;19.20;92.00;18.30;95622.00;;;;5029284;28;20197;-85
2023/08/28 09:49:51;;;;;;;1.00;1.00;;;19.20;92.00;18.30;95631.00;;;;5022518;28;20247;-85
2023/08/28 09:52:25;;;;;;;1.00;0.90;;;19.20;92.00;18.30;95637.00;;;;5019000;28;20200;-84
2023/08/28 09:55:04;;;;;;;1.13;1.07;;;19.20;92.10;18.30;95624.00;;;;5022234;28;20718;-84
2023/08/28 09:57:31;;;;;;;1.00;1.00;;;19.20;92.30;18.30;95610.00;;;;5023758;28;20200;-84
2023/08/28 09:59:58;;;;;;;1.10;1.00;;;19.20;92.40;18.40;95618.00;;;;5023568;28;20275;-84
2023/08/28 10:02:28;;;;;;;1.27;0.97;;;19.20;92.60;18.40;95619.00;;;;5032043;28;20284;-83
2023/08/28 10:04:59;;;;;;;1.33;1.07;;;19.30;92.70;18.50;95620.00;;;;5031103;28;20208;-83
2023/08/28 10:07:28;;;;;;;0.93;0.87;;;19.30;92.80;18.50;95624.00;;;;5029207;28;20729;-83
2023/08/28 10:10:00;;;;;;;0.70;0.70;;;19.30;92.80;18.60;95628.00;;;;5025664;28;20339;-83
2023/08/28 10:12:29;;;;;;;0.80;0.80;;;19.40;93.00;18.70;95634.00;;;;5029987;28;20275;-83
2023/08/28 10:15:01;;;;;;;1.23;1.13;;;19.40;93.20;18.80;95648.00;;;;5030474;28;20197;-83
2023/08/28 10:17:35;;;;;;;0.60;0.50;;;19.50;93.40;18.90;95642.00;;;;5026952;28;20701;-82
2023/08/28 10:20:09;;;;;;;0.80;0.80;;;19.60;93.90;19.00;95649.00;;;;5024223;28;20574;-81
2023/08/28 10:22:38;;;;;;;0.70;0.70;;;19.70;94.10;19.10;95652.00;;;;5027006;28;20203;-82
2023/08/28 10:25:07;;;;;;;0.80;0.80;;;19.80;94.00;19.20;95644.00;;;;5027427;28;20209;-82
2023/08/28 10:27:36;;;;;;;0.70;0.70;;;19.90;93.80;19.30;95632.00;;;;5011196;28;20271;-81
2023/08/28 10:30:08;;;;;;;0.77;0.77;;;19.90;93.60;19.40;95620.00;;;;5033091;28;20224;-82
2023/08/28 10:32:37;;;;;;;0.70;0.70;;;20.00;93.60;19.40;95614.00;;;;5031750;28;20275;-81
2023/08/28 10:35:08;;;;;;;0.57;0.57;;;20.10;93.40;19.40;95626.00;;;;5033965;28;20232;-81
2023/08/28 10:37:38;;;;;;;1.93;0.90;;;20.20;93.20;19.50;95639.00;;;;5030287;28;20234;-81
2023/08/28 10:40:09;;;;;;;0.80;0.80;;;20.20;93.10;19.50;95649.00;;;;5037791;28;20207;-81
2023/08/28 10:42:38;;;;;;;0.70;0.70;;;20.20;93.00;19.50;95653.00;;;;5036541;28;20193;-81
2023/08/28 10:45:08;;;;;;;0.60;0.60;;;20.20;92.80;19.50;95654.00;;;;5031897;28;20240;-82
2023/08/28 10:47:37;;;;;;;0.60;0.60;;;20.30;92.70;19.50;95650.00;;;;5029709;28;20208;-81
2023/08/28 10:50:08;;;;;;;0.50;0.50;;;20.20;92.60;19.50;95639.00;;;;5034616;28;20228;-81
2023/08/28 10:52:36;;;;;;;0.80;0.50;;;20.30;92.70;19.60;95631.00;;;;5037585;28;20282;-82
2023/08/28 10:55:06;;;;;;;0.80;0.80;;;20.30;92.60;19.60;95612.00;;;;5031516;28;20220;-81
2023/08/28 10:57:39;;;;;;;0.60;0.60;;;20.30;92.60;19.60;95595.00;;;;5040554;28;20753;-81
2023/08/28 11:00:18;;;;;;;0.60;0.60;;;20.30;92.50;19.60;95603.00;;;;5036035;28;20202;-81
2023/08/28 11:03:08;;;;;;;0.60;0.60;;;20.40;92.50;19.60;95623.00;;;;5037087;28;20697;-81
2023/08/28 11:05:38;;;;;;;0.70;0.70;;;20.40;92.60;19.70;95638.00;;;;5038029;28;20824;-80